Time;durP1;ratioP1;P1;durP2;ratioP2;P2;SDS_P1;SDS_P2;PMS_P1;PMS_P2;Temp;Humidity;BMP_temperature;BMP_pressure;BME280_temperature;BME280_humidity;BME280_pressure;Samples;Min_cycle;Max_cycle;Signal;HPM_P1;HPM_P2
2022/03/01 00:01:25;;;;;;;15.77;9.52;;;;;;;2.82;63.58;99385.06;4174455;28;20230;-86
2022/03/01 00:03:28;;;;;;;18.77;9.63;;;;;;;2.86;62.96;99384.97;4170602;28;20219;-87
2022/03/01 00:05:31;;;;;;;17.27;9.90;;;;;;;2.80;63.99;99384.25;4155884;28;20215;-86
2022/03/01 00:07:34;;;;;;;17.85;9.68;;;;;;;2.84;63.79;99383.31;4172058;28;20214;-87
2022/03/01 00:09:38;;;;;;;18.23;10.50;;;;;;;2.84;63.91;99378.16;4155512;28;20215;-86
2022/03/01 00:11:41;;;;;;;15.98;9.70;;;;;;;2.84;63.59;99386.75;4177467;28;20710;-85
2022/03/01 00:13:44;;;;;;;23.17;9.38;;;;;;;2.82;63.94;99391.06;4173464;28;20220;-87
2022/03/01 00:15:48;;;;;;;16.38;9.50;;;;;;;2.87;63.78;99385.81;4177020;28;20210;-86
2022/03/01 00:17:51;;;;;;;21.98;9.82;;;;;;;2.85;63.89;99388.44;4171461;28;20298;-87
2022/03/01 00:19:54;;;;;;;15.90;8.80;;;;;;;2.83;63.84;99389.34;4168506;28;20658;-87
2022/03/01 00:21:59;;;;;;;16.23;9.55;;;;;;;2.83;64.41;99392.75;4174168;28;20217;-86
2022/03/01 00:24:02;;;;;;;14.18;9.02;;;;;;;2.79;64.02;99397.16;4171027;28;20687;-85
2022/03/01 00:26:05;;;;;;;17.98;9.95;;;;;;;2.77;64.17;99399.75;4157590;28;20211;-87
2022/03/01 00:28:10;;;;;;;17.73;10.85;;;;;;;2.79;64.28;99400.56;4171900;28;20286;-87
2022/03/01 00:30:13;;;;;;;15.60;9.63;;;;;;;2.79;64.40;99394.56;4152683;28;20288;-87
2022/03/01 00:32:23;;;;;;;15.52;9.82;;;;;;;2.81;64.17;99399.69;4189580;28;20260;-85
2022/03/01 00:34:26;;;;;;;14.90;8.55;;;;;;;2.83;64.10;99399.66;4169583;28;20210;-86
2022/03/01 00:36:29;;;;;;;18.25;10.35;;;;;;;2.86;64.25;99395.28;4171878;28;20216;-87
2022/03/01 00:38:32;;;;;;;16.58;9.32;;;;;;;2.89;64.53;99402.13;4169493;28;20595;-87
2022/03/01 00:40:35;;;;;;;19.08;10.30;;;;;;;2.85;64.60;99403.03;4166573;28;20289;-87
2022/03/01 00:42:38;;;;;;;17.95;8.77;;;;;;;2.86;64.37;99404.75;4168356;28;20206;-86
2022/03/01 00:44:42;;;;;;;16.52;9.35;;;;;;;2.89;64.34;99389.25;4176436;28;20647;-86
2022/03/01 00:46:45;;;;;;;16.80;10.10;;;;;;;2.89;64.11;99408.13;4169306;28;20726;-87
2022/03/01 00:48:49;;;;;;;16.10;9.93;;;;;;;2.91;63.87;99397.78;4171917;28;20211;-86
2022/03/01 00:50:52;;;;;;;18.38;9.30;;;;;;;2.87;64.10;99406.44;4171727;28;20212;-87
2022/03/01 00:52:55;;;;;;;15.43;10.55;;;;;;;2.86;64.25;99389.28;4170365;28;20621;-87
2022/03/01 00:54:58;;;;;;;18.73;9.80;;;;;;;2.84;64.32;99391.03;4149304;28;20260;-87
2022/03/01 00:57:01;;;;;;;18.40;9.60;;;;;;;2.88;64.05;99390.09;4175418;28;20331;-85
2022/03/01 00:59:04;;;;;;;15.27;9.88;;;;;;;2.90;64.53;99390.91;4160662;28;20715;-86
2022/03/01 01:01:07;;;;;;;19.45;9.65;;;;;;;2.92;63.90;99390.03;4177190;28;20223;-87
2022/03/01 01:03:11;;;;;;;18.80;9.30;;;;;;;2.89;63.89;99389.25;4173857;28;20265;-87
2022/03/01 01:05:16;;;;;;;18.95;9.55;;;;;;;2.84;63.74;99385.88;4175712;28;20207;-87
2022/03/01 01:07:19;;;;;;;14.93;9.05;;;;;;;2.82;64.04;99385.06;4175386;28;20208;-86
2022/03/01 01:09:22;;;;;;;15.43;8.88;;;;;;;2.84;63.91;99380.72;4177214;28;20217;-87
2022/03/01 01:11:25;;;;;;;13.80;9.15;;;;;;;2.81;64.32;99375.63;4174971;28;20216;-86
2022/03/01 01:13:29;;;;;;;15.40;9.18;;;;;;;2.77;64.15;99370.56;4176917;28;20216;-87
2022/03/01 01:15:33;;;;;;;16.42;9.40;;;;;;;2.78;63.89;99369.69;4161150;28;20211;-87
2022/03/01 01:17:36;;;;;;;14.60;9.55;;;;;;;2.80;63.98;99373.94;4158960;28;20203;-87
2022/03/01 01:19:39;;;;;;;21.20;9.40;;;;;;;2.75;64.26;99369.75;4174973;28;20626;-87
2022/03/01 01:24:09;;;;;;;17.98;9.40;;;;;;;2.62;64.31;99363.13;4159522;28;20685;-86
2022/03/01 01:26:13;;;;;;;16.48;9.63;;;;;;;2.53;64.57;99361.53;4172411;28;20217;-88
2022/03/01 01:28:16;;;;;;;14.45;8.82;;;;;;;2.49;64.55;99362.44;4188242;28;20210;-86
2022/03/01 01:30:21;;;;;;;16.88;9.35;;;;;;;2.46;65.13;99367.66;4180378;28;20284;-87
2022/03/01 01:32:24;;;;;;;13.77;8.82;;;;;;;2.41;65.20;99363.47;4162260;28;20226;-87
2022/03/01 01:34:27;;;;;;;18.90;9.93;;;;;;;2.34;65.11;99365.25;4178967;28;21586;-87
2022/03/01 01:36:30;;;;;;;14.57;9.02;;;;;;;2.33;65.18;99359.31;4153102;28;20199;-86
2022/03/01 01:38:35;;;;;;;18.63;9.80;;;;;;;2.29;65.20;99357.69;4161314;28;20242;-87
2022/03/01 01:40:38;;;;;;;19.58;9.90;;;;;;;2.27;65.29;99355.13;4179682;28;20268;-87
2022/03/01 01:42:42;;;;;;;12.30;8.57;;;;;;;2.22;64.93;99356.06;4175028;28;20218;-87
2022/03/01 01:44:45;;;;;;;16.25;8.95;;;;;;;2.12;65.09;99350.22;4174577;28;20226;-87
2022/03/01 01:47:08;;;;;;;16.40;9.93;;;;;;;2.09;65.07;99346.81;4156653;28;20639;-87
2022/03/01 01:49:11;;;;;;;14.75;9.23;;;;;;;2.02;65.85;99350.38;4170472;28;20213;-88
2022/03/01 01:51:14;;;;;;;18.33;10.40;;;;;;;2.02;65.83;99345.22;4154160;28;20248;-87
2022/03/01 01:53:19;;;;;;;14.73;9.23;;;;;;;1.97;65.54;99339.28;4174470;28;20694;-87
2022/03/01 01:55:24;;;;;;;16.67;9.45;;;;;;;1.87;65.95;99337.72;4162492;28;20195;-87
2022/03/01 01:57:31;;;;;;;16.63;9.32;;;;;;;1.92;65.51;99338.50;4171050;28;20211;-87
2022/03/01 01:59:34;;;;;;;16.52;10.18;;;;;;;1.87;66.00;99342.88;4177145;28;20905;-86
2022/03/01 02:01:38;;;;;;;15.57;9.40;;;;;;;1.90;65.93;99342.81;4168162;28;20571;-87
2022/03/01 02:03:41;;;;;;;17.88;9.30;;;;;;;1.89;65.68;99343.69;4160740;28;20198;-87
2022/03/01 02:05:44;;;;;;;14.45;9.40;;;;;;;1.97;65.91;99342.72;4164349;28;20203;-88
2022/03/01 02:07:49;;;;;;;17.98;9.57;;;;;;;1.98;64.94;99346.13;4176233;28;20669;-87
2022/03/01 02:09:52;;;;;;;15.75;9.32;;;;;;;1.96;65.23;99343.59;4168506;28;20245;-87
2022/03/01 02:11:56;;;;;;;18.50;8.45;;;;;;;2.04;65.03;99353.75;4171255;28;20612;-87
2022/03/01 02:14:03;;;;;;;16.65;9.88;;;;;;;2.07;65.11;99346.84;4172768;28;20203;-87
2022/03/01 02:16:06;;;;;;;19.88;10.23;;;;;;;2.06;65.87;99344.28;4178253;28;20202;-88
2022/03/01 02:18:09;;;;;;;17.10;10.40;;;;;;;2.05;66.08;99352.91;4174469;28;20202;-87
2022/03/01 02:20:18;;;;;;;20.77;9.50;;;;;;;2.04;66.83;99344.31;4178903;28;20919;-87
2022/03/01 02:22:21;;;;;;;19.08;10.40;;;;;;;2.02;67.17;99347.78;4171858;28;20253;-87
2022/03/01 02:24:26;;;;;;;19.25;10.70;;;;;;;2.02;67.39;99350.38;4173407;28;20199;-87
2022/03/01 02:26:29;;;;;;;16.08;8.70;;;;;;;2.00;67.51;99349.53;4179621;28;20207;-86
2022/03/01 02:28:32;;;;;;;20.60;10.27;;;;;;;1.96;67.45;99343.59;4163636;28;20789;-87
2022/03/01 02:30:35;;;;;;;17.55;10.00;;;;;;;1.97;67.67;99347.88;4179775;28;20198;-86
2022/03/01 02:32:39;;;;;;;19.30;9.95;;;;;;;1.94;67.97;99339.34;4161499;28;20587;-87
2022/03/01 02:34:42;;;;;;;20.40;10.65;;;;;;;1.93;67.81;99338.47;4170424;28;20214;-88
2022/03/01 02:36:47;;;;;;;18.23;10.05;;;;;;;1.90;68.11;99343.66;4172539;28;20206;-87
2022/03/01 02:38:50;;;;;;;18.83;10.38;;;;;;;1.89;67.82;99342.00;4181890;28;20256;-85
2022/03/01 02:40:53;;;;;;;18.85;10.52;;;;;;;1.87;68.01;99337.72;4161666;28;20446;-86
2022/03/01 02:42:57;;;;;;;18.42;10.98;;;;;;;1.85;68.36;99338.59;4173057;28;20210;-87
2022/03/01 02:45:00;;;;;;;17.17;10.77;;;;;;;1.84;68.11;99330.06;4171069;28;20650;-87
2022/03/01 02:47:04;;;;;;;19.63;10.20;;;;;;;1.79;67.72;99336.13;4157667;28;20670;-88
2022/03/01 02:49:08;;;;;;;18.55;11.18;;;;;;;1.76;67.85;99339.59;4177274;28;20327;-87
2022/03/01 02:51:13;;;;;;;17.35;9.82;;;;;;;1.73;68.02;99333.63;4175317;28;20218;-87
2022/03/01 02:53:18;;;;;;;20.48;11.05;;;;;;;1.74;67.87;99340.50;4173847;28;20199;-87
2022/03/01 02:55:21;;;;;;;21.17;10.77;;;;;;;1.76;68.10;99347.31;4172289;28;20211;-87
2022/03/01 02:57:24;;;;;;;20.05;10.23;;;;;;;1.70;68.05;99339.69;4156008;28;20315;-87
2022/03/01 02:59:28;;;;;;;14.73;9.02;;;;;;;1.69;68.29;99332.84;4172428;28;20651;-88
2022/03/01 03:01:31;;;;;;;16.48;9.57;;;;;;;1.72;68.40;99337.09;4170743;28;20321;-87
2022/03/01 03:03:35;;;;;;;16.15;9.50;;;;;;;1.72;68.08;99344.81;4171206;28;20631;-87
2022/03/01 03:05:38;;;;;;;18.95;11.18;;;;;;;1.70;67.96;99342.25;4159796;28;20582;-87
2022/03/01 03:07:41;;;;;;;19.63;10.80;;;;;;;1.70;67.40;99343.97;4166760;28;20652;-87
2022/03/01 03:09:46;;;;;;;17.08;9.13;;;;;;;1.75;66.71;99337.91;4171250;28;20626;-87
2022/03/01 03:11:49;;;;;;;15.45;9.05;;;;;;;1.76;66.81;99339.59;4176397;28;20225;-88
2022/03/01 03:13:52;;;;;;;18.00;10.48;;;;;;;1.80;66.90;99346.38;4178800;28;20199;-87
2022/03/01 03:15:55;;;;;;;20.02;10.75;;;;;;;1.80;66.65;99348.97;4177928;28;20636;-88
2022/03/01 03:17:58;;;;;;;20.27;10.20;;;;;;;1.73;67.71;99347.38;4171818;28;20699;-87
2022/03/01 03:20:01;;;;;;;21.30;11.02;;;;;;;1.67;68.01;99354.28;4170577;28;20203;-87
2022/03/01 03:22:05;;;;;;;16.95;10.20;;;;;;;1.61;67.71;99360.38;4174754;28;20249;-87
2022/03/01 03:24:08;;;;;;;17.70;9.80;;;;;;;1.53;68.21;99362.19;4179794;28;20854;-87
2022/03/01 03:26:13;;;;;;;18.13;10.02;;;;;;;1.46;68.40;99358.00;4169368;28;20206;-88
2022/03/01 03:28:16;;;;;;;22.35;10.25;;;;;;;1.39;68.36;99355.53;4173599;28;20220;-87
2022/03/01 03:30:19;;;;;;;15.70;9.65;;;;;;;1.39;68.20;99360.66;4177525;28;20554;-87
2022/03/01 03:32:23;;;;;;;16.45;9.48;;;;;;;1.34;67.55;99359.00;4166072;28;20697;-88
2022/03/01 03:34:27;;;;;;;15.75;9.18;;;;;;;1.33;67.54;99355.59;4176850;28;20243;-86
2022/03/01 03:36:30;;;;;;;15.05;9.13;;;;;;;1.32;67.23;99350.47;4178481;28;20558;-87
2022/03/01 03:38:33;;;;;;;19.35;10.52;;;;;;;1.28;68.23;99349.66;4173379;28;20227;-87
2022/03/01 03:40:40;;;;;;;15.18;9.20;;;;;;;1.27;67.09;99354.81;4158907;28;20762;-87
2022/03/01 03:42:45;;;;;;;15.30;9.23;;;;;;;1.29;66.90;99356.47;4156798;28;20207;-87
2022/03/01 03:44:48;;;;;;;14.65;8.95;;;;;;;1.27;66.67;99352.25;4174382;28;20218;-88
2022/03/01 03:46:51;;;;;;;14.30;8.80;;;;;;;1.26;66.58;99347.97;4173029;28;20297;-88
2022/03/01 03:48:54;;;;;;;14.60;9.07;;;;;;;1.30;66.31;99347.06;4157357;28;20195;-88
2022/03/01 03:50:57;;;;;;;19.15;9.60;;;;;;;1.25;66.02;99349.69;4162517;28;20203;-88
2022/03/01 03:53:00;;;;;;;16.10;9.20;;;;;;;1.29;66.37;99351.34;4158814;28;20285;-87
2022/03/01 03:55:05;;;;;;;16.67;8.85;;;;;;;1.31;66.30;99357.34;4169065;28;20261;-88
2022/03/01 03:57:08;;;;;;;16.85;9.27;;;;;;;1.28;66.33;99356.50;4172682;28;20210;-88
2022/03/01 03:59:13;;;;;;;17.60;10.20;;;;;;;1.26;67.46;99350.53;4173685;28;20218;-87
2022/03/01 04:01:16;;;;;;;16.08;10.02;;;;;;;1.23;67.63;99351.41;4175649;28;20210;-87
2022/03/01 04:03:19;;;;;;;18.80;10.13;;;;;;;1.24;67.69;99350.56;4153989;28;20227;-86
2022/03/01 04:05:23;;;;;;;13.43;9.25;;;;;;;1.27;67.50;99349.69;4170133;28;20205;-87
2022/03/01 04:07:26;;;;;;;18.02;9.95;;;;;;;1.32;67.16;99340.19;4170650;28;20686;-87
2022/03/01 04:09:29;;;;;;;16.10;9.18;;;;;;;1.32;66.86;99338.47;4169701;28;20210;-87
2022/03/01 04:11:33;;;;;;;17.23;9.35;;;;;;;1.33;67.58;99331.63;4173893;28;20249;-87
2022/03/01 04:13:36;;;;;;;17.20;9.05;;;;;;;1.29;67.28;99337.66;4169718;28;20207;-87
2022/03/01 04:15:40;;;;;;;16.40;8.82;;;;;;;1.26;67.37;99337.69;4168224;28;20215;-87
2022/03/01 04:17:44;;;;;;;16.23;9.90;;;;;;;1.28;67.00;99343.66;4172741;28;20211;-87
2022/03/01 04:19:47;;;;;;;17.42;10.23;;;;;;;1.32;67.39;99335.06;4178528;28;20206;-88
2022/03/01 04:21:50;;;;;;;18.35;9.70;;;;;;;1.30;67.55;99335.06;4164685;28;20218;-88
2022/03/01 04:23:53;;;;;;;15.07;9.02;;;;;;;1.30;66.79;99337.66;4174120;28;20218;-88
2022/03/01 04:25:56;;;;;;;15.57;8.75;;;;;;;1.32;66.47;99329.91;4155744;28;20294;-87
2022/03/01 04:27:59;;;;;;;21.27;10.52;;;;;;;1.35;66.08;99329.88;4168020;28;20593;-87
2022/03/01 04:30:03;;;;;;;16.02;10.00;;;;;;;1.40;65.93;99329.81;4173622;28;20202;-86
2022/03/01 04:32:08;;;;;;;13.88;8.52;;;;;;;1.42;66.10;99333.19;4177870;28;20343;-87
2022/03/01 04:34:11;;;;;;;18.05;10.07;;;;;;;1.43;66.20;99331.50;4162322;28;20217;-88
2022/03/01 04:36:15;;;;;;;16.75;9.98;;;;;;;1.39;66.46;99331.56;4178808;28;20210;-88
2022/03/01 04:38:18;;;;;;;20.10;9.52;;;;;;;1.30;67.74;99326.53;4174966;28;20309;-87
2022/03/01 04:40:21;;;;;;;22.98;10.13;;;;;;;1.27;68.10;99331.72;4174016;28;20264;-87
2022/03/01 04:42:24;;;;;;;16.05;10.13;;;;;;;1.23;68.26;99330.03;4180069;28;20203;-87
2022/03/01 04:44:28;;;;;;;16.33;9.80;;;;;;;1.18;68.52;99327.50;4158762;28;20215;-87
2022/03/01 04:46:31;;;;;;;18.60;10.20;;;;;;;1.17;67.79;99327.53;4173689;28;20208;-86
2022/03/01 04:48:37;;;;;;;21.17;10.60;;;;;;;1.08;68.33;99331.06;4174797;28;20214;-87
2022/03/01 04:50:40;;;;;;;20.25;10.35;;;;;;;1.03;68.59;99331.97;4177272;28;20644;-87
2022/03/01 04:52:43;;;;;;;20.23;9.70;;;;;;;1.00;69.54;99322.59;4171066;28;20202;-88
2022/03/01 04:54:47;;;;;;;16.88;9.90;;;;;;;0.98;69.06;99333.75;4176890;28;20567;-88
2022/03/01 04:56:50;;;;;;;17.08;10.30;;;;;;;0.95;69.03;99321.78;4179250;28;20190;-86
2022/03/01 04:58:54;;;;;;;15.00;9.27;;;;;;;0.90;69.32;99319.28;4172419;28;20662;-87
2022/03/01 05:00:58;;;;;;;19.60;10.90;;;;;;;0.85;69.72;99321.91;4179394;28;20210;-88
2022/03/01 05:03:01;;;;;;;18.67;10.25;;;;;;;0.79;68.95;99316.84;4159281;28;20639;-88
2022/03/01 05:05:10;;;;;;;18.23;9.90;;;;;;;0.81;69.91;99315.09;4174117;28;20595;-89
2022/03/01 05:07:13;;;;;;;18.77;10.50;;;;;;;0.80;68.95;99313.41;4174636;28;20210;-86
2022/03/01 05:09:16;;;;;;;17.05;9.45;;;;;;;0.78;68.88;99310.00;4161320;28;20278;-86
2022/03/01 05:11:19;;;;;;;19.63;10.48;;;;;;;0.65;68.47;99305.03;4174504;28;20218;-86
2022/03/01 05:13:22;;;;;;;20.48;10.10;;;;;;;0.63;68.74;99304.19;4173871;28;20710;-87
2022/03/01 05:15:27;;;;;;;16.92;9.60;;;;;;;0.67;67.59;99306.69;4173594;28;20216;-87
2022/03/01 05:17:30;;;;;;;17.02;9.38;;;;;;;0.65;67.05;99307.59;4171952;28;20302;-87
2022/03/01 05:19:33;;;;;;;17.67;10.15;;;;;;;0.62;66.87;99305.91;4172659;28;20209;-86
2022/03/01 05:21:38;;;;;;;16.17;9.20;;;;;;;0.58;66.60;99306.78;4174978;28;20223;-87
2022/03/01 05:23:41;;;;;;;15.70;9.45;;;;;;;0.60;66.42;99296.50;4158226;28;20242;-87
2022/03/01 05:25:48;;;;;;;17.73;10.48;;;;;;;0.52;66.97;99295.75;4168323;28;20198;-87
2022/03/01 05:27:52;;;;;;;15.88;9.20;;;;;;;0.39;67.25;99298.44;4163848;28;20211;-87
2022/03/01 05:29:55;;;;;;;18.70;9.77;;;;;;;0.36;66.89;99290.78;4159945;28;20199;-86
2022/03/01 05:31:58;;;;;;;17.63;9.38;;;;;;;0.29;67.08;99281.47;4189685;28;20232;-87
2022/03/01 05:34:02;;;;;;;18.85;9.00;;;;;;;0.38;66.32;99281.38;4174933;28;20232;-86
2022/03/01 05:36:05;;;;;;;20.02;9.68;;;;;;;0.29;66.85;99287.44;4174464;28;20202;-87
2022/03/01 05:38:09;;;;;;;21.35;9.82;;;;;;;0.27;66.68;99288.28;4171999;28;20213;-87
2022/03/01 05:40:13;;;;;;;16.63;9.75;;;;;;;0.32;66.83;99294.25;4176986;28;20207;-88
2022/03/01 05:42:16;;;;;;;17.00;8.70;;;;;;;0.34;66.78;99290.78;4159811;28;20215;-87
2022/03/01 05:44:20;;;;;;;17.08;9.50;;;;;;;0.38;66.38;99289.06;4161402;28;20231;-87
2022/03/01 05:46:25;;;;;;;21.17;9.80;;;;;;;0.35;66.81;99294.22;4160075;28;20203;-87
2022/03/01 05:48:28;;;;;;;16.67;9.13;;;;;;;0.34;66.51;99292.50;4154438;28;20722;-87
2022/03/01 05:50:31;;;;;;;18.55;9.70;;;;;;;0.36;66.86;99293.34;4162765;28;20292;-87
2022/03/01 05:52:34;;;;;;;16.13;9.25;;;;;;;0.33;66.40;99304.50;4158254;28;20675;-87
2022/03/01 05:54:39;;;;;;;15.52;8.82;;;;;;;0.39;66.74;99303.56;4174589;28;20242;-87
2022/03/01 05:56:42;;;;;;;17.35;9.30;;;;;;;0.38;66.00;99310.44;4169717;28;20214;-87
2022/03/01 05:58:45;;;;;;;16.80;9.50;;;;;;;0.40;66.11;99312.97;4163299;28;20273;-87
2022/03/01 06:00:48;;;;;;;17.80;10.00;;;;;;;0.46;65.61;99310.34;4173287;28;20682;-87
2022/03/01 06:02:51;;;;;;;16.90;8.90;;;;;;;0.44;65.74;99323.19;4157826;28;20199;-87
2022/03/01 06:05:01;;;;;;;18.42;9.70;;;;;;;0.51;65.44;99318.00;4160278;28;20257;-87
2022/03/01 06:07:04;;;;;;;13.18;7.53;;;;;;;0.49;65.32;99314.56;4185349;28;20226;-87
2022/03/01 06:09:07;;;;;;;15.95;8.73;;;;;;;0.52;65.48;99322.25;4160489;28;20211;-87
2022/03/01 06:11:11;;;;;;;15.43;9.30;;;;;;;0.55;64.94;99322.22;4159111;28;20858;-87
2022/03/01 06:13:14;;;;;;;13.95;9.18;;;;;;;0.55;64.94;99319.66;4158593;28;20234;-87
2022/03/01 06:15:18;;;;;;;14.55;8.50;;;;;;;0.60;64.75;99320.47;4159176;28;20294;-90
2022/03/01 06:17:21;;;;;;;17.23;9.00;;;;;;;0.61;64.82;99318.75;4174655;28;20207;-88
2022/03/01 06:19:24;;;;;;;15.38;9.55;;;;;;;0.69;64.99;99324.66;4158865;28;20211;-87
2022/03/01 06:21:27;;;;;;;15.80;8.68;;;;;;;0.70;64.96;99321.22;4177874;28;20190;-88
2022/03/01 06:23:32;;;;;;;16.23;9.30;;;;;;;0.70;64.53;99318.66;4166365;28;20261;-90
2022/03/01 06:25:35;;;;;;;15.40;8.43;;;;;;;0.74;64.47;99321.19;4175325;28;20670;-90
2022/03/01 06:27:40;;;;;;;16.42;9.05;;;;;;;0.86;64.60;99318.50;4176767;28;20303;-89
2022/03/01 06:29:44;;;;;;;13.82;9.00;;;;;;;1.07;64.62;99315.69;4171600;28;20717;-88
2022/03/01 06:31:47;;;;;;;15.32;9.10;;;;;;;1.27;63.23;99317.13;4173383;28;20218;-89
2022/03/01 06:33:50;;;;;;;15.55;9.20;;;;;;;1.40;63.36;99323.84;4176779;28;20648;-87
2022/03/01 06:35:54;;;;;;;14.02;8.00;;;;;;;1.51;62.40;99327.94;4170904;28;20207;-89
2022/03/01 06:37:57;;;;;;;14.10;8.45;;;;;;;1.67;61.86;99329.44;4178771;28;20280;-88
2022/03/01 06:40:00;;;;;;;15.85;9.15;;;;;;;1.82;61.44;99331.81;4179428;28;20209;-88
2022/03/01 06:42:04;;;;;;;16.60;9.05;;;;;;;1.87;61.18;99332.59;4182227;28;20205;-87
2022/03/01 06:44:08;;;;;;;14.40;9.32;;;;;;;1.97;61.40;99337.56;4161025;28;20670;-87
2022/03/01 06:46:13;;;;;;;16.10;8.90;;;;;;;2.10;61.06;99335.66;4160244;28;20273;-87
2022/03/01 06:48:19;;;;;;;13.25;8.18;;;;;;;2.24;60.50;99344.88;4174595;28;20256;-87
2022/03/01 06:50:23;;;;;;;13.90;8.52;;;;;;;2.33;61.13;99355.03;4176938;28;20213;-87
2022/03/01 06:52:26;;;;;;;15.27;8.60;;;;;;;2.46;60.03;99352.19;4176487;28;20206;-88
2022/03/01 06:54:30;;;;;;;15.18;8.65;;;;;;;2.61;59.96;99361.41;4169009;28;20756;-88
2022/03/01 06:56:33;;;;;;;15.10;9.10;;;;;;;2.71;59.39;99357.81;4179267;28;20260;-87
2022/03/01 06:58:36;;;;;;;15.93;8.90;;;;;;;2.78;59.37;99365.38;4178762;28;20283;-88
2022/03/01 07:00:40;;;;;;;14.10;9.15;;;;;;;2.85;59.42;99364.41;4180871;28;20619;-90
2022/03/01 07:02:43;;;;;;;17.10;8.60;;;;;;;2.97;58.88;99359.03;4154070;28;20258;-89
2022/03/01 07:04:47;;;;;;;15.85;9.40;;;;;;;3.14;58.94;99360.41;4180082;28;20201;-88
2022/03/01 07:06:50;;;;;;;17.83;8.90;;;;;;;3.30;58.50;99370.41;4174626;28;20199;-87
2022/03/01 07:08:53;;;;;;;12.68;8.35;;;;;;;3.41;58.14;99368.50;4180581;28;20248;-90
2022/03/01 07:10:59;;;;;;;14.23;8.88;;;;;;;3.49;58.26;99369.16;4171116;28;20298;-86
2022/03/01 07:13:02;;;;;;;13.52;9.45;;;;;;;3.71;58.57;99379.91;4179571;28;20231;-88
2022/03/01 07:15:06;;;;;;;13.25;8.43;;;;;;;3.89;57.24;99375.19;4168820;28;20203;-89
2022/03/01 07:17:11;;;;;;;18.05;10.30;;;;;;;4.10;56.96;99374.72;4172627;28;20210;-89
2022/03/01 07:19:14;;;;;;;14.90;9.90;;;;;;;4.25;56.78;99381.25;4155881;28;20228;-89
2022/03/01 07:21:17;;;;;;;20.30;12.68;;;;;;;4.39;56.72;99379.19;4182443;28;20206;-88
2022/03/01 07:23:20;;;;;;;17.17;9.55;;;;;;;4.48;55.64;99389.31;4174415;28;20212;-90
2022/03/01 07:25:23;;;;;;;15.55;9.25;;;;;;;4.50;55.89;99387.53;4179573;28;20580;-87
2022/03/01 07:27:26;;;;;;;15.43;9.60;;;;;;;4.69;56.57;99391.34;4182602;28;20210;-86
2022/03/01 07:29:30;;;;;;;14.80;10.07;;;;;;;4.94;55.62;99395.03;4173481;28;20210;-93
2022/03/01 07:31:33;;;;;;;16.25;10.20;;;;;;;5.11;55.45;99388.53;4172341;28;20228;-91
2022/03/01 07:33:41;;;;;;;14.93;9.63;;;;;;;5.29;54.22;99395.81;4157721;28;20212;-91
2022/03/01 07:35:44;;;;;;;13.63;8.82;;;;;;;5.44;54.96;99393.69;4174256;28;20350;-89
2022/03/01 07:37:47;;;;;;;13.93;9.07;;;;;;;5.62;55.08;99403.50;4177596;28;20212;-89
2022/03/01 07:39:55;;;;;;;12.57;8.60;;;;;;;5.78;54.94;99404.81;4171517;28;20209;-89
2022/03/01 07:41:58;;;;;;;13.18;8.85;;;;;;;5.95;54.35;99405.16;4172165;28;20244;-90
2022/03/01 07:44:01;;;;;;;12.18;8.25;;;;;;;6.11;54.27;99407.25;4174682;28;20209;-90
2022/03/01 07:46:06;;;;;;;15.95;8.65;;;;;;;6.28;53.65;99411.03;4175293;28;20211;-88
2022/03/01 07:48:10;;;;;;;15.63;9.18;;;;;;;6.36;54.13;99406.47;4170748;28;20241;-88
2022/03/01 07:50:16;;;;;;;15.60;9.48;;;;;;;6.48;52.95;99410.41;4166151;28;20294;-91
2022/03/01 07:52:19;;;;;;;14.13;9.25;;;;;;;6.57;52.04;99418.78;4172507;28;20218;-92
2022/03/01 07:54:25;;;;;;;14.95;9.10;;;;;;;6.67;53.44;99413.22;4172036;28;20225;-89
2022/03/01 07:56:28;;;;;;;14.05;8.57;;;;;;;6.85;53.38;99416.97;4177169;28;20206;-89
2022/03/01 07:58:31;;;;;;;16.70;10.18;;;;;;;6.92;51.82;99415.91;4153357;28;20233;-87
2022/03/01 08:00:35;;;;;;;14.30;9.82;;;;;;;6.95;51.47;99408.03;4169229;28;20215;-91
2022/03/01 08:02:38;;;;;;;14.50;10.43;;;;;;;7.05;50.38;99415.41;4169972;28;20634;-90
2022/03/01 08:04:42;;;;;;;16.17;11.32;;;;;;;7.06;50.82;99410.19;4154644;28;20206;-91
2022/03/01 08:06:46;;;;;;;14.23;9.57;;;;;;;7.03;50.70;99402.50;4166597;28;20216;-87
2022/03/01 08:08:49;;;;;;;12.73;8.65;;;;;;;7.16;51.57;99408.97;4160688;28;20277;-87
2022/03/01 08:10:52;;;;;;;12.88;8.43;;;;;;;7.28;51.34;99403.38;4179940;28;20202;-88
2022/03/01 08:13:15;;;;;;;10.63;8.07;;;;;;;7.10;50.57;99408.34;4174979;28;20219;-88
2022/03/01 08:15:18;;;;;;;12.88;8.77;;;;;;;7.12;50.08;99412.56;4173541;28;20277;-87
2022/03/01 08:17:21;;;;;;;13.10;9.05;;;;;;;7.04;50.60;99406.81;4164480;28;20206;-87
2022/03/01 08:19:24;;;;;;;12.52;8.63;;;;;;;7.12;50.94;99399.59;4184096;28;20247;-88
2022/03/01 08:21:27;;;;;;;11.00;8.02;;;;;;;7.28;51.29;99393.00;4181897;28;20224;-89
2022/03/01 08:23:32;;;;;;;12.35;8.20;;;;;;;7.39;51.24;99390.03;4167275;28;20210;-87
2022/03/01 08:25:36;;;;;;;13.40;8.93;;;;;;;7.42;49.26;99382.97;4173643;28;20557;-88
2022/03/01 08:27:39;;;;;;;12.82;8.50;;;;;;;7.33;49.38;99378.13;4171185;28;20205;-88
2022/03/01 08:29:42;;;;;;;11.05;8.32;;;;;;;7.36;49.86;99377.16;4185542;28;20202;-88
2022/03/01 08:31:46;;;;;;;14.80;9.02;;;;;;;7.46;50.16;99381.13;4178289;28;20289;-89
2022/03/01 08:33:50;;;;;;;11.93;8.52;;;;;;;7.57;49.72;99385.03;4172767;28;20281;-88
2022/03/01 08:35:55;;;;;;;12.05;8.57;;;;;;;7.62;49.68;99383.13;4171872;28;20228;-88
2022/03/01 08:38:02;;;;;;;13.13;8.23;;;;;;;7.78;50.31;99382.50;4168081;28;20226;-88
2022/03/01 08:40:08;;;;;;;14.18;8.90;;;;;;;7.86;49.65;99382.22;4167323;28;20201;-89
2022/03/01 08:42:12;;;;;;;12.02;8.07;;;;;;;7.98;49.20;99382.59;4161710;28;20239;-88
2022/03/01 08:44:15;;;;;;;14.50;8.07;;;;;;;7.97;48.10;99381.78;4166340;28;20285;-89
2022/03/01 08:46:21;;;;;;;12.10;7.97;;;;;;;7.92;48.66;99384.59;4171050;28;20810;-89
2022/03/01 08:48:25;;;;;;;11.57;7.88;;;;;;;7.96;49.26;99384.44;4170506;28;20607;-90
2022/03/01 08:50:31;;;;;;;12.95;9.20;;;;;;;8.03;48.86;99375.50;4162180;28;20682;-89
2022/03/01 08:52:44;;;;;;;13.27;8.45;;;;;;;8.04;47.89;99375.47;4163748;28;20375;-88
2022/03/01 08:54:48;;;;;;;13.57;8.85;;;;;;;8.00;48.07;99373.88;4175882;28;20252;-88
2022/03/01 08:56:53;;;;;;;12.50;9.07;;;;;;;7.94;47.95;99375.00;4159078;28;20283;-88
2022/03/01 08:58:57;;;;;;;13.68;8.38;;;;;;;7.87;49.13;99374.38;4165828;28;20211;-86
2022/03/01 09:01:00;;;;;;;14.70;8.40;;;;;;;8.02;50.13;99355.63;4164154;28;20210;-87
2022/03/01 09:03:03;;;;;;;11.63;8.32;;;;;;;8.19;49.25;99364.47;4174245;28;20690;-88
2022/03/01 09:05:09;;;;;;;13.68;8.90;;;;;;;8.15;48.31;99356.91;4174773;28;20211;-89
2022/03/01 09:07:13;;;;;;;13.55;8.65;;;;;;;8.15;49.65;99357.72;4167401;28;20222;-87
2022/03/01 09:09:16;;;;;;;13.20;9.30;;;;;;;8.10;49.54;99362.25;4186206;28;20680;-87
2022/03/01 09:11:20;;;;;;;10.25;7.55;;;;;;;8.33;50.07;99348.38;4158280;28;20249;-84
2022/03/01 09:13:24;;;;;;;12.57;8.45;;;;;;;8.30;48.62;99351.06;4166649;28;20199;-85
2022/03/01 09:15:31;;;;;;;13.65;8.75;;;;;;;8.38;48.20;99342.09;4171793;28;20202;-86
2022/03/01 09:17:35;;;;;;;11.18;7.57;;;;;;;8.35;47.24;99337.00;4161907;28;20222;-87
2022/03/01 09:19:38;;;;;;;13.98;8.95;;;;;;;8.25;48.26;99346.06;4171666;28;20652;-87
2022/03/01 09:21:41;;;;;;;12.70;10.15;;;;;;;8.20;48.33;99341.97;4173159;28;20213;-86
2022/03/01 09:23:45;;;;;;;14.35;10.20;;;;;;;8.17;48.04;99340.31;4187825;28;20204;-85
2022/03/01 09:25:48;;;;;;;15.40;10.00;;;;;;;8.17;49.07;99337.72;4173338;28;20198;-87
2022/03/01 09:27:51;;;;;;;19.77;14.80;;;;;;;8.40;49.79;99335.06;4159226;28;20232;-86
2022/03/01 09:29:56;;;;;;;15.32;11.02;;;;;;;8.53;47.87;99342.31;4174756;28;20212;-86
2022/03/01 09:32:00;;;;;;;12.48;8.45;;;;;;;8.53;48.45;99336.28;4180197;28;20237;-86
2022/03/01 09:34:03;;;;;;;17.25;12.50;;;;;;;8.52;48.60;99325.03;4172389;28;20281;-86
2022/03/01 09:36:07;;;;;;;19.52;13.07;;;;;;;8.59;49.32;99321.28;4170830;28;20201;-86
2022/03/01 09:38:10;;;;;;;13.52;8.90;;;;;;;8.71;48.35;99314.72;4155241;28;20207;-85
2022/03/01 09:40:18;;;;;;;13.43;9.50;;;;;;;8.74;49.04;99314.59;4188984;28;20243;-87
2022/03/01 09:42:22;;;;;;;12.45;8.18;;;;;;;8.80;48.62;99316.94;4172971;28;20211;-85
2022/03/01 09:44:25;;;;;;;13.35;7.90;;;;;;;8.85;47.64;99315.00;4173908;28;20728;-85